createdAt,value
2022-11-27T00:00:20.915Z,70.46
2022-11-27T00:02:53.732Z,70.45
2022-11-27T00:05:27.146Z,70.48
2022-11-27T00:08:00.442Z,70.45
2022-11-27T00:10:33.677Z,70.31
2022-11-27T00:13:07.219Z,70.44
2022-11-27T00:15:40.787Z,70.58
2022-11-27T00:18:14.279Z,70.60
2022-11-27T00:20:47.811Z,70.54
2022-11-27T00:23:21.159Z,70.54
2022-11-27T00:25:54.758Z,70.53
2022-11-27T00:28:28.193Z,70.42
2022-11-27T00:31:02.625Z,70.53
2022-11-27T00:33:37.643Z,70.64
2022-11-27T00:36:13.234Z,70.68
2022-11-27T00:38:46.604Z,70.56
2022-11-27T00:41:22.874Z,70.53
2022-11-27T00:43:57.029Z,70.55
2022-11-27T00:46:33.083Z,70.50
2022-11-27T00:49:07.820Z,70.59
2022-11-27T00:51:41.638Z,70.53
2022-11-27T00:54:15.253Z,70.51
2022-11-27T00:56:48.557Z,70.65
2022-11-27T00:59:21.911Z,70.72
2022-11-27T01:01:55.203Z,70.61
2022-11-27T01:04:28.600Z,70.57
2022-11-27T01:07:02.128Z,70.66
2022-11-27T01:09:35.482Z,70.63
2022-11-27T01:12:10.041Z,70.70
2022-11-27T01:14:43.364Z,70.69
2022-11-27T01:17:16.793Z,70.76
2022-11-27T01:19:50.293Z,70.86
2022-11-27T01:22:24.056Z,70.83
2022-11-27T01:24:57.188Z,70.80
2022-11-27T01:27:30.614Z,70.87
2022-11-27T01:30:04.221Z,70.86
2022-11-27T01:32:37.868Z,70.80
2022-11-27T01:35:12.548Z,70.86
2022-11-27T01:37:45.733Z,70.89
2022-11-27T01:40:19.341Z,70.88
2022-11-27T01:42:52.656Z,70.88
2022-11-27T01:45:26.814Z,70.90
2022-11-27T01:48:03.048Z,70.88
2022-11-27T01:50:39.147Z,70.87
2022-11-27T01:53:15.880Z,70.79
2022-11-27T01:55:51.949Z,70.79
2022-11-27T01:58:28.344Z,70.76
2022-11-27T02:01:02.140Z,70.76
2022-11-27T02:03:35.820Z,70.82
2022-11-27T02:06:12.907Z,70.88
2022-11-27T02:08:46.655Z,70.90
2022-11-27T02:11:22.888Z,70.95
2022-11-27T02:13:59.182Z,70.95
2022-11-27T02:16:35.337Z,70.81
2022-11-27T02:19:11.319Z,70.73
2022-11-27T02:21:48.602Z,70.87
2022-11-27T02:28:19.205Z,71.06
2022-11-27T02:30:55.974Z,71.08
2022-11-27T02:33:30.878Z,71.16
2022-11-27T02:36:07.457Z,71.18
2022-11-27T02:38:44.049Z,71.11
2022-11-27T02:41:20.533Z,71.17
2022-11-27T02:43:56.862Z,71.10
2022-11-27T02:46:30.829Z,71.06
2022-11-27T02:49:08.201Z,71.01
2022-11-27T02:51:45.169Z,71.00
2022-11-27T02:54:21.671Z,71.05
2022-11-27T02:56:57.958Z,71.08
2022-11-27T02:59:33.354Z,71.09
2022-11-27T03:02:09.784Z,71.14
2022-11-27T03:04:46.320Z,71.13
2022-11-27T03:07:23.313Z,71.06
2022-11-27T03:09:59.511Z,71.06
2022-11-27T03:12:34.522Z,71.03
2022-11-27T03:15:10.370Z,71.12
2022-11-27T03:17:52.928Z,71.07
2022-11-27T03:20:30.153Z,71.14
2022-11-27T03:23:03.688Z,71.18
2022-11-27T03:25:37.151Z,71.22
2022-11-27T03:28:12.458Z,71.24
2022-11-27T03:30:45.781Z,71.16
2022-11-27T03:33:19.853Z,71.17
2022-11-27T03:35:54.327Z,71.24
2022-11-27T03:38:27.671Z,71.21
2022-11-27T03:41:04.003Z,71.12
2022-11-27T03:43:40.242Z,71.08
2022-11-27T03:46:16.649Z,71.07
2022-11-27T03:48:52.752Z,71.14
2022-11-27T03:51:28.946Z,71.18
2022-11-27T03:54:05.087Z,71.18
2022-11-27T03:56:42.165Z,71.17
2022-11-27T03:59:19.990Z,71.24
2022-11-27T04:01:53.638Z,71.16
2022-11-27T04:04:27.189Z,71.13
2022-11-27T04:07:00.556Z,71.16
2022-11-27T04:09:33.836Z,71.25
2022-11-27T04:12:08.027Z,71.25
2022-11-27T04:14:41.639Z,71.26
2022-11-27T04:17:15.225Z,71.35
2022-11-27T04:19:48.792Z,71.26
2022-11-27T04:22:22.178Z,71.28
2022-11-27T04:24:56.043Z,71.29
2022-11-27T04:27:29.288Z,71.34
2022-11-27T04:30:02.768Z,71.30
2022-11-27T04:32:36.306Z,71.27
2022-11-27T04:35:11.106Z,71.31
2022-11-27T04:37:44.467Z,71.42
2022-11-27T04:40:18.524Z,71.37
2022-11-27T04:42:51.957Z,71.33
2022-11-27T04:45:25.123Z,71.39
2022-11-27T04:47:58.440Z,71.39
2022-11-27T04:50:32.197Z,71.42
2022-11-27T04:53:05.573Z,71.39
2022-11-27T04:55:39.176Z,71.34
2022-11-27T04:58:12.571Z,71.28
2022-11-27T05:00:46.069Z,71.38
2022-11-27T05:03:19.806Z,71.41
2022-11-27T05:05:58.591Z,71.41
2022-11-27T05:08:33.884Z,71.46
2022-11-27T05:11:08.887Z,71.47
2022-11-27T05:13:42.512Z,71.50
2022-11-27T05:16:15.713Z,71.44
2022-11-27T05:18:49.375Z,71.44
2022-11-27T05:21:22.982Z,71.51
2022-11-27T05:23:56.300Z,71.56
2022-11-27T05:26:29.729Z,71.62
2022-11-27T05:29:03.593Z,71.60
2022-11-27T05:31:38.007Z,71.60
2022-11-27T05:34:12.262Z,71.59
2022-11-27T05:36:46.069Z,71.64
2022-11-27T05:39:19.795Z,71.71
2022-11-27T05:41:53.266Z,71.80
2022-11-27T05:44:28.339Z,71.74
2022-11-27T05:47:01.949Z,71.67
2022-11-27T05:49:35.393Z,71.69
2022-11-27T05:52:08.622Z,71.70
2022-11-27T05:54:42.505Z,71.91
2022-11-27T05:57:15.950Z,72.00
2022-11-27T05:59:49.361Z,72.04
2022-11-27T06:02:27.970Z,72.12
2022-11-27T06:04:58.027Z,72.08
2022-11-27T06:07:32.196Z,72.06
2022-11-27T06:10:05.968Z,72.05
2022-11-27T06:12:39.477Z,71.99
2022-11-27T06:15:13.357Z,71.98
2022-11-27T06:17:47.124Z,72.03
2022-11-27T06:20:21.419Z,72.05
2022-11-27T06:22:54.768Z,72.02
2022-11-27T06:25:28.515Z,71.94
2022-11-27T06:28:01.927Z,72.10
2022-11-27T06:30:35.199Z,72.21
2022-11-27T06:33:08.448Z,72.13
2022-11-27T06:35:41.711Z,72.14
2022-11-27T06:38:14.998Z,72.13
2022-11-27T06:40:48.427Z,72.03
2022-11-27T06:43:22.123Z,72.00
2022-11-27T06:45:59.895Z,72.02
2022-11-27T06:48:32.090Z,72.11
2022-11-27T06:51:06.055Z,72.11
2022-11-27T06:53:40.583Z,72.10
2022-11-27T06:56:15.379Z,72.04
2022-11-27T06:58:50.458Z,72.00
2022-11-27T07:01:24.936Z,72.01
2022-11-27T07:03:59.395Z,72.00
2022-11-27T07:06:32.674Z,71.94
2022-11-27T07:09:07.748Z,71.92
2022-11-27T07:11:41.774Z,71.89
2022-11-27T07:14:15.660Z,71.69
2022-11-27T07:16:49.362Z,71.83
2022-11-27T07:19:22.588Z,71.73
2022-11-27T07:21:56.155Z,71.89
2022-11-27T07:24:29.607Z,71.96
2022-11-27T07:27:03.224Z,71.92
2022-11-27T07:29:36.920Z,71.89
2022-11-27T07:32:10.409Z,71.86
2022-11-27T07:34:44.023Z,71.80
2022-11-27T07:37:17.565Z,71.72
2022-11-27T07:40:05.502Z,71.75
2022-11-27T07:42:41.671Z,71.77
2022-11-27T07:45:01.651Z,71.76
2022-11-27T07:47:35.026Z,71.74
2022-11-27T07:50:11.279Z,71.73
2022-11-27T07:52:44.989Z,71.79
2022-11-27T07:55:18.478Z,71.74
2022-11-27T07:57:52.440Z,71.62
2022-11-27T08:00:26.546Z,71.65
2022-11-27T08:03:01.036Z,71.61
2022-11-27T08:05:36.460Z,71.58
2022-11-27T08:08:09.868Z,71.47
2022-11-27T08:10:43.771Z,71.53
2022-11-27T08:13:17.000Z,71.51
2022-11-27T08:15:50.309Z,71.41
2022-11-27T08:18:23.625Z,71.57
2022-11-27T08:20:56.921Z,71.65
2022-11-27T08:23:30.443Z,71.60
2022-11-27T08:26:07.549Z,71.56
2022-11-27T08:28:41.937Z,71.61
2022-11-27T08:31:16.329Z,71.63
2022-11-27T08:33:50.200Z,71.52
2022-11-27T08:36:26.695Z,71.49
2022-11-27T08:39:00.200Z,71.58
2022-11-27T08:41:33.480Z,71.49
2022-11-27T08:44:09.357Z,71.60
2022-11-27T08:46:41.754Z,71.62
2022-11-27T08:49:15.310Z,71.52
2022-11-27T08:51:48.859Z,71.49
2022-11-27T08:54:22.518Z,71.51
2022-11-27T08:56:55.700Z,71.45
2022-11-27T08:59:29.092Z,71.42
2022-11-27T09:02:02.787Z,71.46
2022-11-27T09:04:36.199Z,71.52
2022-11-27T09:07:11.121Z,71.36
2022-11-27T09:09:44.864Z,71.20
2022-11-27T09:12:18.011Z,71.27
2022-11-27T09:14:51.354Z,71.31
2022-11-27T09:17:24.657Z,71.34
2022-11-27T09:19:58.230Z,71.32
2022-11-27T09:22:31.917Z,71.21
2022-11-27T09:25:05.904Z,71.19
2022-11-27T09:27:40.007Z,71.10
2022-11-27T09:30:15.955Z,71.19
2022-11-27T09:32:49.536Z,71.12
2022-11-27T09:35:23.134Z,70.95
2022-11-27T09:37:56.588Z,71.02
2022-11-27T09:40:29.895Z,71.00
2022-11-27T09:43:06.447Z,70.92
2022-11-27T09:45:45.261Z,70.85
2022-11-27T09:48:21.528Z,70.91
2022-11-27T09:50:57.721Z,71.00
2022-11-27T09:53:34.037Z,70.95
2022-11-27T09:56:10.239Z,70.94
2022-11-27T09:58:46.714Z,70.99
2022-11-27T10:01:25.150Z,70.98
2022-11-27T10:03:57.558Z,71.02
2022-11-27T10:06:33.798Z,71.07
2022-11-27T10:09:14.601Z,71.03
2022-11-27T10:11:51.809Z,71.01
2022-11-27T10:14:32.969Z,70.94
2022-11-27T10:17:09.589Z,70.92
2022-11-27T10:19:47.349Z,71.11
2022-11-27T10:22:24.616Z,70.55
2022-11-27T10:25:04.152Z,70.46
2022-11-27T10:27:39.700Z,70.45
2022-11-27T10:30:18.014Z,70.46
2022-11-27T10:32:55.482Z,70.73
2022-11-27T10:35:31.831Z,70.86
2022-11-27T10:38:08.076Z,70.79
2022-11-27T10:40:44.388Z,70.80
2022-11-27T10:43:20.333Z,70.83
2022-11-27T10:45:55.842Z,70.80
2022-11-27T10:48:29.864Z,70.67
2022-11-27T10:51:03.387Z,70.44
2022-11-27T10:53:38.556Z,70.15
2022-11-27T10:56:51.601Z,70.25
2022-11-27T10:59:33.025Z,70.35
2022-11-27T11:02:05.094Z,70.49
2022-11-27T11:04:48.449Z,70.40
2022-11-27T11:07:27.002Z,70.41
2022-11-27T11:10:01.503Z,70.18
2022-11-27T11:12:34.749Z,70.21
2022-11-27T11:15:15.492Z,70.28
2022-11-27T11:17:48.800Z,70.20
2022-11-27T11:20:23.881Z,70.02
2022-11-27T11:22:56.903Z,69.85
2022-11-27T11:25:30.670Z,69.88
2022-11-27T11:28:04.389Z,69.95
2022-11-27T11:30:39.710Z,70.12
2022-11-27T11:33:15.475Z,70.16
2022-11-27T11:35:54.003Z,70.19
2022-11-27T11:38:32.546Z,70.03
2022-11-27T11:41:09.755Z,70.02
2022-11-27T11:43:43.609Z,69.97
2022-11-27T11:46:23.558Z,69.94
2022-11-27T11:49:00.197Z,70.12
2022-11-27T11:51:57.407Z,70.19
2022-11-27T11:54:44.019Z,70.21
2022-11-27T11:57:27.476Z,70.25
2022-11-27T12:00:04.190Z,70.28
2022-11-27T12:02:47.003Z,70.30
2022-11-27T12:05:28.636Z,70.33
2022-11-27T12:08:33.217Z,70.50
2022-11-27T12:11:12.055Z,70.55
2022-11-27T12:14:05.000Z,70.56
2022-11-27T12:16:43.644Z,70.45
2022-11-27T12:19:35.049Z,70.50
2022-11-27T12:22:12.691Z,70.49
2022-11-27T12:24:50.247Z,70.51
2022-11-27T12:27:29.221Z,70.59
2022-11-27T12:30:14.578Z,70.66
2022-11-27T12:36:02.281Z,70.65
2022-11-27T12:38:43.518Z,70.43
2022-11-27T12:41:36.080Z,70.42
2022-11-27T12:44:14.945Z,70.59
2022-11-27T12:46:52.404Z,70.59
2022-11-27T12:49:28.818Z,70.68
2022-11-27T12:52:05.564Z,70.71
2022-11-27T12:54:42.410Z,70.71
2022-11-27T12:57:19.977Z,70.64
2022-11-27T12:59:56.221Z,70.59
2022-11-27T13:02:35.675Z,70.67
2022-11-27T13:05:12.083Z,70.60
2022-11-27T13:07:48.509Z,70.72
2022-11-27T13:10:26.473Z,70.82
2022-11-27T13:13:05.076Z,70.87
2022-11-27T13:15:41.749Z,70.97
2022-11-27T13:18:20.185Z,70.94
2022-11-27T13:20:54.688Z,70.91
2022-11-27T13:23:29.368Z,70.91
2022-11-27T13:26:05.727Z,70.89
2022-11-27T13:28:43.270Z,70.89
2022-11-27T13:31:20.177Z,70.79
2022-11-27T13:33:55.080Z,70.73
2022-11-27T13:36:35.753Z,70.94
2022-11-27T13:39:05.632Z,71.16
2022-11-27T13:41:41.745Z,71.22
2022-11-27T13:44:27.105Z,71.15
2022-11-27T13:47:03.362Z,71.06
2022-11-27T13:49:38.956Z,71.00
2022-11-27T13:52:16.030Z,70.99
2022-11-27T13:54:56.754Z,70.96
2022-11-27T13:57:31.663Z,70.94
2022-11-27T14:00:08.764Z,70.83
2022-11-27T14:02:50.159Z,70.93
2022-11-27T14:05:26.279Z,71.16
2022-11-27T14:08:00.792Z,71.20
2022-11-27T14:10:35.685Z,71.18
2022-11-27T14:13:11.337Z,71.19
2022-11-27T14:15:44.913Z,71.28
2022-11-27T14:18:21.268Z,71.26
2022-11-27T14:20:56.890Z,71.22
2022-11-27T14:23:32.512Z,71.31
2022-11-27T14:26:13.397Z,71.27
2022-11-27T14:28:44.835Z,71.29
2022-11-27T14:31:31.200Z,71.39
2022-11-27T14:34:16.054Z,71.45
2022-11-27T14:36:40.583Z,71.47
2022-11-27T14:39:23.789Z,71.49
2022-11-27T14:42:02.032Z,71.39
2022-11-27T14:44:36.088Z,71.33
2022-11-27T14:47:11.283Z,71.27
2022-11-27T14:49:44.816Z,71.27
2022-11-27T14:52:19.134Z,71.24
2022-11-27T14:54:53.602Z,71.35
2022-11-27T14:57:29.044Z,71.37
2022-11-27T15:00:13.731Z,71.38
2022-11-27T15:02:47.896Z,71.41
2022-11-27T15:05:25.098Z,71.41
2022-11-27T15:08:01.794Z,71.46
2022-11-27T15:10:38.927Z,71.52
2022-11-27T15:13:22.807Z,71.39
2022-11-27T15:16:01.538Z,71.53
2022-11-27T15:18:38.956Z,71.54
2022-11-27T15:21:19.442Z,71.52
2022-11-27T15:23:54.076Z,71.58
2022-11-27T15:26:35.679Z,71.63
2022-11-27T15:29:31.854Z,71.58
2022-11-27T15:32:07.716Z,71.59
2022-11-27T15:34:41.918Z,71.61
2022-11-27T15:37:23.539Z,71.64
2022-11-27T15:39:57.831Z,71.63
2022-11-27T15:42:31.923Z,71.59
2022-11-27T15:45:08.197Z,71.65
2022-11-27T15:47:45.353Z,71.66
2022-11-27T15:50:19.460Z,71.61
2022-11-27T15:52:53.056Z,71.70
2022-11-27T15:55:26.717Z,71.72
2022-11-27T15:58:00.514Z,71.77
2022-11-27T16:00:35.446Z,71.84
2022-11-27T16:03:09.861Z,71.80
2022-11-27T16:05:43.523Z,71.82
2022-11-27T16:08:17.431Z,71.79
2022-11-27T16:10:51.307Z,71.83
2022-11-27T16:13:24.807Z,71.85
2022-11-27T16:15:59.744Z,71.88
2022-11-27T16:18:36.925Z,71.87
2022-11-27T16:21:12.389Z,71.86
2022-11-27T16:23:46.516Z,71.81
2022-11-27T16:26:28.887Z,71.95
2022-11-27T16:29:23.011Z,71.95
2022-11-27T16:34:38.067Z,71.99
2022-11-27T16:37:18.414Z,71.96
2022-11-27T16:39:53.488Z,71.90
2022-11-27T16:42:33.121Z,71.90
2022-11-27T16:45:08.229Z,71.85
2022-11-27T16:47:46.254Z,71.85
2022-11-27T16:50:20.117Z,71.77
2022-11-27T16:52:55.641Z,71.75
2022-11-27T16:55:31.696Z,71.78
2022-11-27T16:58:05.075Z,71.87
2022-11-27T17:00:38.842Z,71.88
2022-11-27T17:03:17.905Z,71.92
2022-11-27T17:05:51.769Z,71.96
2022-11-27T17:08:26.713Z,71.98
2022-11-27T17:11:09.753Z,72.05
2022-11-27T17:13:50.743Z,72.28
2022-11-27T17:16:28.699Z,72.15
2022-11-27T17:19:04.284Z,72.38
2022-11-27T17:21:38.305Z,72.49
2022-11-27T17:24:16.057Z,72.43
2022-11-27T17:26:54.023Z,72.42
2022-11-27T17:29:33.861Z,72.37
2022-11-27T17:32:10.089Z,72.13
2022-11-27T17:34:45.309Z,72.35
2022-11-27T17:37:20.032Z,72.43
2022-11-27T17:39:54.598Z,72.40
2022-11-27T17:42:28.413Z,72.30
2022-11-27T17:45:07.007Z,72.27
2022-11-27T17:47:40.481Z,72.17
2022-11-27T17:50:17.558Z,72.29
2022-11-27T17:52:54.905Z,72.29
2022-11-27T17:55:28.923Z,72.35
2022-11-27T17:58:04.965Z,72.24
2022-11-27T18:00:45.103Z,72.20
2022-11-27T18:03:20.949Z,72.13
2022-11-27T18:05:54.334Z,72.09
2022-11-27T18:08:28.091Z,71.96
2022-11-27T18:11:09.379Z,72.24
2022-11-27T18:13:43.511Z,72.56
2022-11-27T18:16:20.977Z,72.73
2022-11-27T18:18:54.418Z,72.60
2022-11-27T18:21:31.992Z,72.82
2022-11-27T18:24:23.382Z,72.96
2022-11-27T18:29:16.804Z,73.01
2022-11-27T18:31:55.068Z,73.07
2022-11-27T18:34:29.410Z,73.14
2022-11-27T18:37:03.481Z,73.24
2022-11-27T18:39:37.849Z,73.40
2022-11-27T18:42:11.295Z,73.67
2022-11-27T18:44:46.625Z,73.86
2022-11-27T18:47:20.451Z,74.07
2022-11-27T18:49:55.776Z,74.06
2022-11-27T18:52:30.988Z,73.98
2022-11-27T18:55:06.286Z,74.11
2022-11-27T18:57:39.777Z,74.37
2022-11-27T19:00:16.283Z,74.45
2022-11-27T19:02:51.656Z,74.48
2022-11-27T19:05:25.285Z,74.37
2022-11-27T19:08:01.330Z,74.27
2022-11-27T19:10:35.449Z,74.09
2022-11-27T19:13:08.982Z,74.00
2022-11-27T19:15:46.149Z,74.17
2022-11-27T19:18:20.877Z,74.30
2022-11-27T19:20:58.999Z,74.42
2022-11-27T19:23:34.012Z,74.50
2022-11-27T19:26:10.679Z,74.64
2022-11-27T19:28:45.451Z,74.76
2022-11-27T19:31:19.243Z,74.78
2022-11-27T19:33:56.215Z,74.85
2022-11-27T19:36:31.565Z,74.70
2022-11-27T19:39:06.527Z,74.69
2022-11-27T19:41:40.022Z,74.60
2022-11-27T19:44:15.727Z,74.40
2022-11-27T19:46:49.571Z,74.48
2022-11-27T19:49:26.175Z,74.62
2022-11-27T19:52:00.095Z,74.86
2022-11-27T19:54:35.808Z,74.83
2022-11-27T19:57:09.501Z,74.91
2022-11-27T19:59:43.893Z,74.93
2022-11-27T20:02:17.979Z,74.91
2022-11-27T20:04:54.971Z,75.09
2022-11-27T20:07:28.520Z,75.16
2022-11-27T20:10:02.108Z,75.01
2022-11-27T20:12:38.437Z,74.89
2022-11-27T20:15:16.391Z,74.94
2022-11-27T20:17:49.928Z,75.17
2022-11-27T20:20:23.646Z,75.05
2022-11-27T20:22:58.062Z,75.10
2022-11-27T20:25:31.406Z,75.02
2022-11-27T20:28:05.258Z,75.07
2022-11-27T20:30:40.895Z,75.10
2022-11-27T20:33:16.265Z,75.08
2022-11-27T20:35:49.753Z,75.16
2022-11-27T20:38:23.756Z,75.26
2022-11-27T20:40:57.591Z,75.05
2022-11-27T20:43:31.133Z,75.02
2022-11-27T20:46:04.951Z,75.25
2022-11-27T20:48:38.818Z,75.22
2022-11-27T20:51:14.481Z,75.04
2022-11-27T20:53:49.731Z,75.23
2022-11-27T20:56:23.786Z,75.08
2022-11-27T20:58:57.929Z,75.00
2022-11-27T21:01:33.700Z,75.23
2022-11-27T21:04:10.034Z,75.42
2022-11-27T21:06:44.406Z,75.53
2022-11-27T21:09:19.779Z,75.65
2022-11-27T21:11:54.201Z,75.71
2022-11-27T21:14:27.944Z,75.81
2022-11-27T21:17:05.109Z,75.79
2022-11-27T21:19:38.731Z,75.65
2022-11-27T21:22:12.424Z,75.80
2022-11-27T21:24:46.174Z,76.06
2022-11-27T21:27:19.735Z,76.11
2022-11-27T21:29:54.434Z,76.03
2022-11-27T21:32:29.057Z,76.27
2022-11-27T21:35:03.138Z,76.35
2022-11-27T21:37:36.368Z,76.44
2022-11-27T21:40:12.668Z,76.57
2022-11-27T21:42:46.136Z,76.58
2022-11-27T21:45:19.854Z,76.61
2022-11-27T21:47:53.314Z,76.67
2022-11-27T21:50:26.575Z,76.70
2022-11-27T21:53:00.634Z,76.65
2022-11-27T21:55:33.959Z,76.68
2022-11-27T21:58:07.482Z,76.73
2022-11-27T22:00:40.978Z,76.60
2022-11-27T22:03:14.564Z,76.68
2022-11-27T22:05:48.062Z,76.63
2022-11-27T22:08:21.603Z,76.74
2022-11-27T22:10:55.343Z,76.75
2022-11-27T22:13:30.062Z,76.64
2022-11-27T22:16:04.264Z,76.59
2022-11-27T22:18:37.982Z,76.67
2022-11-27T22:21:12.683Z,76.63
2022-11-27T22:23:46.890Z,76.59
2022-11-27T22:26:22.058Z,76.38
2022-11-27T22:28:57.318Z,76.58
2022-11-27T22:31:33.577Z,76.47
2022-11-27T22:34:07.003Z,76.38
2022-11-27T22:36:40.609Z,76.41
2022-11-27T22:39:14.029Z,76.63
2022-11-27T22:41:47.830Z,76.73
2022-11-27T22:44:23.087Z,76.84
2022-11-27T22:46:56.562Z,76.74
2022-11-27T22:49:29.976Z,76.63
2022-11-27T22:52:03.579Z,76.40
2022-11-27T22:54:37.272Z,76.43
2022-11-27T22:57:10.620Z,76.39
2022-11-27T22:59:43.989Z,76.32
2022-11-27T23:02:18.489Z,76.45
2022-11-27T23:04:51.946Z,76.47
2022-11-27T23:07:25.600Z,76.35
2022-11-27T23:09:58.945Z,76.30
2022-11-27T23:12:34.187Z,76.22
2022-11-27T23:15:09.224Z,76.06
2022-11-27T23:17:42.568Z,76.01
2022-11-27T23:20:16.576Z,76.30
2022-11-27T23:22:50.134Z,76.42
2022-11-27T23:25:23.641Z,76.67
2022-11-27T23:27:57.003Z,76.79
2022-11-27T23:30:30.122Z,76.98
2022-11-27T23:33:03.902Z,76.95
2022-11-27T23:35:37.508Z,77.01
2022-11-27T23:38:11.030Z,77.01
2022-11-27T23:40:44.527Z,76.79
2022-11-27T23:43:17.889Z,77.07
2022-11-27T23:45:51.316Z,77.23
2022-11-27T23:48:24.672Z,77.32
2022-11-27T23:50:58.031Z,77.36
2022-11-27T23:53:31.767Z,77.46
2022-11-27T23:56:05.810Z,77.31
2022-11-27T23:58:45.194Z,77.40
